createdAt,value
2023-02-15T00:01:31.365Z,-3.94
2023-02-15T00:03:57.966Z,-4.04
2023-02-15T00:06:24.817Z,-3.90
2023-02-15T00:08:51.524Z,-3.93
2023-02-15T00:11:38.891Z,-4.18
2023-02-15T00:14:09.180Z,-3.98
2023-02-15T00:16:36.319Z,-4.02
2023-02-15T00:19:03.548Z,-4.13
2023-02-15T00:21:31.604Z,-3.94
2023-02-15T00:23:59.145Z,-4.20
2023-02-15T00:26:26.047Z,-4.20
2023-02-15T00:28:52.868Z,-4.11
2023-02-15T00:31:19.729Z,-4.02
2023-02-15T00:33:46.494Z,-4.00
2023-02-15T00:36:13.385Z,-3.92
2023-02-15T00:38:40.250Z,-3.73
2023-02-15T00:41:07.814Z,-3.88
2023-02-15T00:43:35.087Z,-4.16
2023-02-15T00:46:02.293Z,-4.25
2023-02-15T00:48:29.329Z,-3.95
2023-02-15T00:50:59.692Z,-3.98
2023-02-15T00:53:27.045Z,-4.35
2023-02-15T00:55:54.059Z,-4.32
2023-02-15T00:58:20.657Z,-4.42
2023-02-15T01:00:47.786Z,-4.31
2023-02-15T01:03:15.815Z,-4.52
2023-02-15T01:05:42.561Z,-4.30
2023-02-15T01:08:09.241Z,-4.47
2023-02-15T01:10:36.152Z,-4.66
2023-02-15T01:13:02.805Z,-5.02
2023-02-15T01:15:29.585Z,-5.28
2023-02-15T01:17:56.559Z,-5.12
2023-02-15T01:20:25.272Z,-4.99
2023-02-15T01:22:52.577Z,-4.79
2023-02-15T01:25:19.976Z,-4.57
2023-02-15T01:27:46.733Z,-4.85
2023-02-15T01:30:14.045Z,-5.09
2023-02-15T01:32:40.944Z,-5.48
2023-02-15T01:35:07.949Z,-5.51
2023-02-15T01:37:34.792Z,-5.31
2023-02-15T01:40:02.237Z,-5.04
2023-02-15T01:42:29.334Z,-5.25
2023-02-15T01:45:00.316Z,-5.64
2023-02-15T01:47:29.957Z,-5.57
2023-02-15T01:50:15.084Z,-5.67
2023-02-15T01:52:45.668Z,-5.99
2023-02-15T01:55:13.632Z,-6.06
2023-02-15T01:57:40.448Z,-6.34
2023-02-15T02:00:07.590Z,-6.57
2023-02-15T02:02:34.208Z,-6.34
2023-02-15T02:05:07.407Z,-6.25
2023-02-15T02:07:36.205Z,-6.38
2023-02-15T02:10:03.861Z,-5.70
2023-02-15T02:12:30.842Z,-5.49
2023-02-15T02:14:57.563Z,-5.36
2023-02-15T02:17:48.936Z,-5.30
2023-02-15T02:20:43.568Z,-5.36
2023-02-15T02:23:25.273Z,-5.77
2023-02-15T02:25:51.914Z,-5.97
2023-02-15T02:28:18.435Z,-5.80
2023-02-15T02:31:09.219Z,-5.80
2023-02-15T02:33:53.837Z,-5.95
2023-02-15T02:36:43.217Z,-6.09
2023-02-15T02:39:23.020Z,-6.49
2023-02-15T02:41:49.613Z,-6.05
2023-02-15T02:44:46.465Z,-5.70
2023-02-15T02:47:30.613Z,-5.63
2023-02-15T02:50:08.572Z,-5.68
2023-02-15T02:53:01.644Z,-5.56
2023-02-15T02:55:43.953Z,-5.51
2023-02-15T02:58:37.321Z,-5.98
2023-02-15T03:01:09.936Z,-5.88
2023-02-15T03:03:39.121Z,-5.93
2023-02-15T03:06:42.428Z,-6.01
2023-02-15T03:09:19.695Z,-6.05
2023-02-15T03:11:46.497Z,-6.20
2023-02-15T03:14:14.267Z,-5.87
2023-02-15T03:16:41.252Z,-5.67
2023-02-15T03:19:10.788Z,-5.70
2023-02-15T03:21:50.505Z,-5.67
2023-02-15T03:24:21.784Z,-5.64
2023-02-15T03:26:49.456Z,-5.74
2023-02-15T03:29:16.559Z,-5.86
2023-02-15T03:31:44.519Z,-6.28
2023-02-15T03:34:12.736Z,-6.53
2023-02-15T03:36:51.700Z,-6.70
2023-02-15T03:39:31.185Z,-6.18
2023-02-15T03:42:13.431Z,-6.61
2023-02-15T03:44:59.610Z,-6.27
2023-02-15T03:47:31.615Z,-6.05
2023-02-15T03:50:33.918Z,-6.06
2023-02-15T03:53:01.256Z,-6.04
2023-02-15T03:55:28.440Z,-6.23
2023-02-15T03:58:13.844Z,-6.10
2023-02-15T04:01:02.720Z,-6.13
2023-02-15T04:04:00.149Z,-6.36
2023-02-15T04:06:26.773Z,-6.50
2023-02-15T04:09:12.158Z,-6.50
2023-02-15T04:11:38.825Z,-6.49
2023-02-15T04:14:25.421Z,-6.22
2023-02-15T04:16:52.219Z,-6.35
2023-02-15T04:19:37.522Z,-6.38
2023-02-15T04:22:22.426Z,-6.25
2023-02-15T04:25:07.625Z,-6.05
2023-02-15T04:27:34.411Z,-5.92
2023-02-15T04:30:01.142Z,-5.86
2023-02-15T04:32:28.469Z,-5.90
2023-02-15T04:34:55.162Z,-6.03
2023-02-15T04:37:21.839Z,-6.24
2023-02-15T04:39:48.771Z,-6.34
2023-02-15T04:42:15.416Z,-6.25
2023-02-15T04:44:42.826Z,-6.37
2023-02-15T04:47:09.538Z,-6.23
2023-02-15T04:49:36.249Z,-6.29
2023-02-15T04:52:02.899Z,-6.45
2023-02-15T04:54:29.646Z,-6.15
2023-02-15T04:56:56.336Z,-6.13
2023-02-15T04:59:22.947Z,-6.25
2023-02-15T05:01:50.424Z,-6.25
2023-02-15T05:04:17.274Z,-6.34
2023-02-15T05:06:43.981Z,-6.08
2023-02-15T05:09:12.294Z,-6.30
2023-02-15T05:11:39.043Z,-6.20
2023-02-15T05:14:05.707Z,-6.33
2023-02-15T05:16:32.518Z,-6.83
2023-02-15T05:18:59.203Z,-7.25
2023-02-15T05:21:25.841Z,-7.40
2023-02-15T05:23:52.525Z,-7.06
2023-02-15T05:26:39.640Z,-6.98
2023-02-15T05:29:06.418Z,-6.66
2023-02-15T05:31:33.528Z,-6.53
2023-02-15T05:34:00.198Z,-6.50
2023-02-15T05:36:26.958Z,-6.61
2023-02-15T05:38:53.729Z,-6.68
2023-02-15T05:41:20.343Z,-7.07
2023-02-15T05:43:47.088Z,-6.93
2023-02-15T05:46:13.812Z,-6.91
2023-02-15T05:48:40.553Z,-6.80
2023-02-15T05:51:14.073Z,-6.67
2023-02-15T05:53:40.739Z,-6.36
2023-02-15T05:56:11.927Z,-6.20
2023-02-15T05:58:39.917Z,-6.13
2023-02-15T06:01:16.812Z,-6.17
2023-02-15T06:03:43.632Z,-6.32
2023-02-15T06:06:10.304Z,-7.28
2023-02-15T06:08:37.421Z,-7.26
2023-02-15T06:11:04.117Z,-6.85
2023-02-15T06:13:31.137Z,-6.59
2023-02-15T06:15:57.746Z,-6.34
2023-02-15T06:18:24.394Z,-6.34
2023-02-15T06:20:51.162Z,-6.13
2023-02-15T06:23:17.808Z,-5.99
2023-02-15T06:25:45.744Z,-5.72
2023-02-15T06:28:12.362Z,-5.48
2023-02-15T06:30:39.047Z,-5.36
2023-02-15T06:33:05.822Z,-5.47
2023-02-15T06:35:32.530Z,-5.37
2023-02-15T06:37:59.314Z,-5.31
2023-02-15T06:40:25.955Z,-5.31
2023-02-15T06:42:52.676Z,-5.19
2023-02-15T06:45:19.383Z,-4.97
2023-02-15T06:47:46.070Z,-4.98
2023-02-15T06:50:12.781Z,-4.77
2023-02-15T06:52:39.525Z,-4.71
2023-02-15T06:55:07.202Z,-4.72
2023-02-15T06:57:34.267Z,-4.68
2023-02-15T07:00:01.083Z,-4.59
2023-02-15T07:02:27.851Z,-4.62
2023-02-15T07:04:54.633Z,-4.52
2023-02-15T07:07:21.363Z,-4.24
2023-02-15T07:09:48.189Z,-4.12
2023-02-15T07:12:33.253Z,-4.20
2023-02-15T07:15:00.179Z,-3.99
2023-02-15T07:17:37.060Z,-3.63
2023-02-15T07:20:09.052Z,-3.61
2023-02-15T07:22:37.335Z,-3.52
2023-02-15T07:25:05.353Z,-3.28
2023-02-15T07:27:32.628Z,-3.28
2023-02-15T07:29:59.738Z,-3.28
2023-02-15T07:32:29.882Z,-3.04
2023-02-15T07:34:56.629Z,-3.06
2023-02-15T07:37:23.423Z,-2.84
2023-02-15T07:39:50.200Z,-2.75
2023-02-15T07:42:16.876Z,-2.66
2023-02-15T07:44:43.568Z,-2.64
2023-02-15T07:47:10.253Z,-2.40
2023-02-15T07:49:37.108Z,-2.26
2023-02-15T07:52:03.820Z,-2.09
2023-02-15T07:54:30.706Z,-2.12
2023-02-15T07:56:57.337Z,-1.99
2023-02-15T07:59:25.151Z,-1.74
2023-02-15T08:01:53.901Z,-1.53
2023-02-15T08:04:20.602Z,-1.50
2023-02-15T08:06:47.293Z,-1.46
2023-02-15T08:09:14.072Z,-1.14
2023-02-15T08:11:41.748Z,-1.05
2023-02-15T08:14:09.330Z,-0.96
2023-02-15T08:16:47.119Z,-0.69
2023-02-15T08:19:23.581Z,-0.62
2023-02-15T08:21:52.328Z,-0.32
2023-02-15T08:24:21.140Z,-0.21
2023-02-15T08:26:48.711Z,-0.09
2023-02-15T08:29:16.144Z,0.42
2023-02-15T08:31:43.230Z,0.49
2023-02-15T08:34:11.511Z,0.67
2023-02-15T08:36:38.439Z,1.04
2023-02-15T08:39:06.026Z,0.94
2023-02-15T08:41:35.028Z,1.05
2023-02-15T08:44:03.037Z,1.55
2023-02-15T08:46:31.916Z,1.36
2023-02-15T08:48:58.591Z,1.73
2023-02-15T08:51:26.974Z,1.92
2023-02-15T08:53:55.062Z,1.86
2023-02-15T08:56:26.911Z,2.01
2023-02-15T08:58:54.190Z,2.21
2023-02-15T09:01:23.129Z,1.85
2023-02-15T09:03:51.431Z,1.66
2023-02-15T09:06:18.198Z,2.33
2023-02-15T09:08:44.900Z,2.92
2023-02-15T09:11:23.842Z,2.91
2023-02-15T09:14:00.806Z,2.96
2023-02-15T09:16:29.534Z,3.36
2023-02-15T09:18:58.461Z,3.53
2023-02-15T09:21:25.777Z,3.51
2023-02-15T09:23:53.671Z,3.60
2023-02-15T09:26:21.361Z,3.53
2023-02-15T09:28:49.405Z,3.32
2023-02-15T09:31:16.823Z,3.59
2023-02-15T09:33:44.702Z,3.98
2023-02-15T09:36:22.918Z,3.94
2023-02-15T09:38:58.382Z,3.81
2023-02-15T09:41:28.083Z,4.06
2023-02-15T09:44:06.661Z,4.13
2023-02-15T09:46:46.226Z,4.12
2023-02-15T09:49:24.472Z,4.40
2023-02-15T09:52:43.393Z,4.49
2023-02-15T09:55:32.515Z,4.56
2023-02-15T09:58:06.380Z,5.06
2023-02-15T10:00:42.601Z,4.71
2023-02-15T10:03:46.734Z,4.73
2023-02-15T10:06:16.875Z,4.62
2023-02-15T10:09:40.661Z,4.68
2023-02-15T10:12:22.206Z,4.96
2023-02-15T10:15:08.334Z,4.63
2023-02-15T10:17:51.231Z,4.64
2023-02-15T10:20:40.038Z,5.11
2023-02-15T10:23:37.971Z,4.98
2023-02-15T10:26:16.990Z,5.38
2023-02-15T10:28:53.598Z,5.35
2023-02-15T10:31:33.914Z,5.87
2023-02-15T10:34:12.796Z,6.08
2023-02-15T10:36:58.881Z,6.37
2023-02-15T10:39:55.048Z,6.30
2023-02-15T10:42:25.173Z,6.17
2023-02-15T10:44:57.464Z,6.52
2023-02-15T10:48:01.590Z,6.00
2023-02-15T10:50:28.196Z,6.87
2023-02-15T10:53:20.260Z,7.04
2023-02-15T10:56:04.779Z,7.06
2023-02-15T10:58:40.104Z,7.06
2023-02-15T11:01:21.007Z,7.33
2023-02-15T11:03:53.521Z,7.82
2023-02-15T11:06:20.568Z,7.59
2023-02-15T11:09:04.929Z,6.93
2023-02-15T11:11:43.417Z,7.34
2023-02-15T11:14:30.202Z,7.38
2023-02-15T11:17:00.231Z,7.56
2023-02-15T11:19:41.922Z,7.19
2023-02-15T11:22:10.627Z,7.30
2023-02-15T11:24:43.341Z,7.76
2023-02-15T11:27:23.053Z,7.27
2023-02-15T11:30:10.522Z,7.49
2023-02-15T11:32:42.014Z,7.49
2023-02-15T11:35:21.583Z,8.24
2023-02-15T11:37:57.501Z,8.84
2023-02-15T11:40:33.522Z,8.44
2023-02-15T11:43:03.204Z,8.57
2023-02-15T11:45:34.025Z,8.58
2023-02-15T11:48:01.079Z,8.79
2023-02-15T11:50:32.458Z,9.08
2023-02-15T11:53:07.572Z,8.70
2023-02-15T11:55:36.117Z,8.63
2023-02-15T11:58:39.139Z,8.96
2023-02-15T12:01:17.742Z,8.94
2023-02-15T12:03:45.618Z,8.53
2023-02-15T12:06:39.783Z,8.69
2023-02-15T12:09:33.277Z,8.23
2023-02-15T12:12:22.464Z,8.71
2023-02-15T12:14:50.732Z,8.73
2023-02-15T12:17:17.449Z,8.66
2023-02-15T12:19:44.736Z,8.40
2023-02-15T12:22:26.422Z,8.89
2023-02-15T12:24:55.508Z,8.79
2023-02-15T12:27:33.299Z,8.55
2023-02-15T12:30:08.874Z,8.43
2023-02-15T12:32:37.205Z,8.66
2023-02-15T12:35:10.707Z,8.75
2023-02-15T12:37:37.448Z,8.40
2023-02-15T12:40:21.149Z,8.58
2023-02-15T12:42:47.797Z,8.64
2023-02-15T12:45:31.827Z,8.50
2023-02-15T12:48:13.572Z,8.44
2023-02-15T12:50:47.545Z,8.45
2023-02-15T12:53:31.801Z,8.62
2023-02-15T12:56:02.737Z,8.71
2023-02-15T12:58:31.333Z,8.89
2023-02-15T13:01:10.248Z,9.03
2023-02-15T13:03:38.870Z,8.93
2023-02-15T13:06:09.458Z,8.83
2023-02-15T13:08:40.576Z,8.97
2023-02-15T13:11:11.374Z,8.92
2023-02-15T13:13:56.320Z,8.92
2023-02-15T13:16:43.211Z,9.18
2023-02-15T13:19:34.593Z,9.32
2023-02-15T13:22:03.350Z,9.53
2023-02-15T13:24:40.848Z,9.32
2023-02-15T13:27:15.769Z,9.34
2023-02-15T13:29:54.337Z,9.42
2023-02-15T13:32:38.876Z,9.30
2023-02-15T13:35:08.098Z,9.28
2023-02-15T13:37:47.205Z,9.13
2023-02-15T13:40:36.678Z,9.22
2023-02-15T13:43:12.839Z,9.07
2023-02-15T13:45:48.709Z,9.11
2023-02-15T13:48:31.413Z,9.20
2023-02-15T13:51:12.897Z,8.77
2023-02-15T13:54:16.444Z,8.67
2023-02-15T13:57:35.169Z,8.26
2023-02-15T14:00:21.973Z,8.15
2023-02-15T14:02:51.400Z,7.85
2023-02-15T14:05:35.777Z,7.94
2023-02-15T14:08:21.094Z,7.71
2023-02-15T14:11:21.324Z,7.89
2023-02-15T14:14:06.764Z,8.04
2023-02-15T14:17:07.309Z,7.81
2023-02-15T14:19:50.997Z,7.65
2023-02-15T14:22:37.291Z,7.71
2023-02-15T14:25:29.882Z,7.72
2023-02-15T14:28:22.749Z,7.24
2023-02-15T14:30:50.462Z,7.24
2023-02-15T14:33:26.589Z,6.85
2023-02-15T14:35:53.318Z,6.98
2023-02-15T14:38:27.249Z,6.66
2023-02-15T14:41:04.893Z,6.97
2023-02-15T14:43:56.536Z,6.86
2023-02-15T14:46:40.110Z,6.81
2023-02-15T14:49:21.961Z,6.54
2023-02-15T14:51:48.626Z,6.56
2023-02-15T14:54:18.420Z,6.54
2023-02-15T14:56:46.002Z,6.38
2023-02-15T14:59:12.713Z,6.25
2023-02-15T15:01:39.440Z,6.28
2023-02-15T15:04:23.451Z,6.27
2023-02-15T15:07:15.472Z,5.97
2023-02-15T15:09:42.598Z,5.80
2023-02-15T15:12:27.459Z,6.07
2023-02-15T15:14:55.215Z,5.85
2023-02-15T15:17:34.164Z,5.82
2023-02-15T15:20:02.301Z,5.95
2023-02-15T15:22:29.675Z,5.54
2023-02-15T15:25:00.457Z,5.55
2023-02-15T15:27:51.654Z,5.33
2023-02-15T15:30:24.579Z,5.47
2023-02-15T15:32:54.733Z,5.43
2023-02-15T15:35:55.910Z,5.23
2023-02-15T15:38:46.659Z,4.90
2023-02-15T15:41:19.152Z,4.49
2023-02-15T15:43:51.180Z,4.32
2023-02-15T15:46:25.336Z,3.98
2023-02-15T15:48:52.114Z,3.92
2023-02-15T15:51:34.222Z,4.01
2023-02-15T15:54:01.315Z,3.85
2023-02-15T15:56:33.077Z,3.78
2023-02-15T15:59:05.744Z,3.74
2023-02-15T16:01:44.963Z,3.55
2023-02-15T16:04:12.996Z,3.34
2023-02-15T16:06:40.316Z,3.32
2023-02-15T16:09:13.412Z,3.18
2023-02-15T16:11:40.936Z,2.98
2023-02-15T16:14:15.627Z,2.97
2023-02-15T16:16:42.664Z,2.95
2023-02-15T16:19:23.362Z,2.89
2023-02-15T16:21:50.274Z,2.79
2023-02-15T16:24:35.752Z,2.83
2023-02-15T16:27:05.265Z,2.71
2023-02-15T16:29:33.401Z,2.54
2023-02-15T16:32:15.964Z,2.51
2023-02-15T16:35:15.993Z,2.40
2023-02-15T16:37:42.566Z,2.24
2023-02-15T16:40:24.533Z,1.80
2023-02-15T16:42:55.418Z,1.88
2023-02-15T16:45:23.393Z,1.90
2023-02-15T16:47:51.742Z,1.86
2023-02-15T16:50:27.719Z,1.57
2023-02-15T16:52:54.459Z,1.51
2023-02-15T16:55:28.987Z,1.44
2023-02-15T16:57:58.202Z,0.81
2023-02-15T17:00:26.813Z,0.32
2023-02-15T17:03:01.185Z,0.31
2023-02-15T17:05:41.598Z,0.20
2023-02-15T17:08:19.123Z,0.15
2023-02-15T17:10:59.219Z,0.05
2023-02-15T17:13:26.565Z,0.03
2023-02-15T17:15:59.311Z,0.07
2023-02-15T17:18:30.626Z,0.26
2023-02-15T17:21:21.554Z,0.09
2023-02-15T17:23:49.849Z,0.31
2023-02-15T17:26:24.301Z,0.38
2023-02-15T17:28:57.252Z,0.45
2023-02-15T17:31:26.194Z,0.55
2023-02-15T17:33:55.400Z,0.47
2023-02-15T17:36:23.647Z,0.34
2023-02-15T17:38:59.536Z,0.44
2023-02-15T17:41:30.020Z,0.39
2023-02-15T17:43:56.745Z,0.30
2023-02-15T17:46:23.774Z,0.47
2023-02-15T17:48:54.887Z,0.34
2023-02-15T17:51:21.891Z,0.13
2023-02-15T17:54:07.175Z,-0.01
2023-02-15T17:56:34.416Z,0.14
2023-02-15T17:59:01.120Z,0.06
2023-02-15T18:01:46.358Z,0.04
2023-02-15T18:04:32.119Z,-0.10
2023-02-15T18:07:17.328Z,-0.25
2023-02-15T18:10:02.556Z,-0.44
2023-02-15T18:12:33.770Z,-0.44
2023-02-15T18:15:01.458Z,-0.44
2023-02-15T18:17:34.999Z,-0.13
2023-02-15T18:20:07.116Z,-0.36
2023-02-15T18:22:33.947Z,-0.12
2023-02-15T18:25:00.794Z,-0.79
2023-02-15T18:27:27.581Z,-1.00
2023-02-15T18:29:54.238Z,-0.73
2023-02-15T18:32:28.961Z,-0.64
2023-02-15T18:34:56.587Z,-0.53
2023-02-15T18:37:23.268Z,-0.55
2023-02-15T18:39:54.506Z,-0.53
2023-02-15T18:42:36.947Z,-0.75
2023-02-15T18:45:18.924Z,-0.97
2023-02-15T18:47:46.010Z,-0.98
2023-02-15T18:50:16.893Z,-0.89
2023-02-15T18:52:43.869Z,-1.02
2023-02-15T18:55:21.982Z,-1.27
2023-02-15T18:57:49.663Z,-1.37
2023-02-15T19:00:25.661Z,-1.42
2023-02-15T19:02:52.461Z,-1.26
2023-02-15T19:05:19.203Z,-1.13
2023-02-15T19:07:48.488Z,-1.20
2023-02-15T19:10:17.123Z,-1.24
2023-02-15T19:12:44.127Z,-1.08
2023-02-15T19:15:18.308Z,-0.89
2023-02-15T19:17:45.040Z,-1.06
2023-02-15T19:20:18.704Z,-1.05
2023-02-15T19:22:46.351Z,-1.17
2023-02-15T19:25:20.891Z,-1.17
2023-02-15T19:27:47.594Z,-1.29
2023-02-15T19:30:19.106Z,-1.55
2023-02-15T19:32:46.043Z,-1.62
2023-02-15T19:35:16.933Z,-1.74
2023-02-15T19:37:44.793Z,-1.51
2023-02-15T19:40:22.361Z,-1.61
2023-02-15T19:42:49.375Z,-1.72
2023-02-15T19:45:20.844Z,-1.84
2023-02-15T19:47:51.839Z,-1.92
2023-02-15T19:50:19.588Z,-2.05
2023-02-15T19:52:46.605Z,-2.06
2023-02-15T19:55:17.725Z,-1.87
2023-02-15T19:57:44.361Z,-1.72
2023-02-15T20:00:22.652Z,-1.57
2023-02-15T20:02:49.619Z,-1.97
2023-02-15T20:05:16.405Z,-2.01
2023-02-15T20:07:44.992Z,-1.90
2023-02-15T20:10:22.696Z,-1.87
2023-02-15T20:12:49.516Z,-1.50
2023-02-15T20:15:24.602Z,-1.58
2023-02-15T20:17:51.525Z,-1.58
2023-02-15T20:20:21.245Z,-1.80
2023-02-15T20:22:49.035Z,-1.85
2023-02-15T20:25:35.888Z,-1.93
2023-02-15T20:28:02.589Z,-1.82
2023-02-15T20:30:30.842Z,-1.69
2023-02-15T20:32:57.704Z,-1.64
2023-02-15T20:35:25.669Z,-1.60
2023-02-15T20:37:53.617Z,-1.60
2023-02-15T20:40:22.185Z,-1.66
2023-02-15T20:42:48.920Z,-1.71
2023-02-15T20:45:16.704Z,-1.68
2023-02-15T20:47:48.357Z,-1.60
2023-02-15T20:50:17.348Z,-1.50
2023-02-15T20:52:44.125Z,-1.57
2023-02-15T20:55:15.901Z,-1.68
2023-02-15T20:57:42.650Z,-1.51
2023-02-15T21:00:18.977Z,-1.60
2023-02-15T21:02:47.308Z,-1.58
2023-02-15T21:05:24.159Z,-1.80
2023-02-15T21:07:51.081Z,-1.89
2023-02-15T21:10:19.760Z,-2.02
2023-02-15T21:12:46.593Z,-1.93
2023-02-15T21:15:28.213Z,-1.91
2023-02-15T21:17:55.404Z,-2.03
2023-02-15T21:20:22.194Z,-1.88
2023-02-15T21:22:48.940Z,-2.02
2023-02-15T21:25:16.036Z,-2.14
2023-02-15T21:27:43.234Z,-2.13
2023-02-15T21:30:17.065Z,-2.04
2023-02-15T21:32:43.575Z,-2.48
2023-02-15T21:35:16.602Z,-2.81
2023-02-15T21:37:43.616Z,-2.73
2023-02-15T21:40:13.297Z,-2.65
2023-02-15T21:42:58.674Z,-2.79
2023-02-15T21:45:43.855Z,-2.67
2023-02-15T21:48:10.510Z,-2.88
2023-02-15T21:50:55.760Z,-3.02
2023-02-15T21:53:28.428Z,-2.97
2023-02-15T21:55:56.115Z,-3.09
2023-02-15T21:58:26.136Z,-3.00
2023-02-15T22:00:57.659Z,-3.14
2023-02-15T22:03:25.665Z,-2.98
2023-02-15T22:05:52.580Z,-3.22
2023-02-15T22:08:19.931Z,-3.15
2023-02-15T22:10:48.073Z,-3.01
2023-02-15T22:13:31.003Z,-2.75
2023-02-15T22:15:58.040Z,-2.77
2023-02-15T22:18:26.597Z,-2.95
2023-02-15T22:20:53.562Z,-2.87
2023-02-15T22:23:20.502Z,-2.75
2023-02-15T22:25:54.764Z,-2.64
2023-02-15T22:28:23.657Z,-2.75
2023-02-15T22:30:50.367Z,-3.32
2023-02-15T22:33:24.877Z,-2.85
2023-02-15T22:35:51.912Z,-2.75
2023-02-15T22:38:18.617Z,-2.81
2023-02-15T22:40:45.230Z,-2.69
2023-02-15T22:43:25.448Z,-3.11
2023-02-15T22:45:52.200Z,-3.28
2023-02-15T22:48:20.257Z,-3.32
2023-02-15T22:50:46.900Z,-3.11
2023-02-15T22:53:13.547Z,-2.93
2023-02-15T22:55:40.245Z,-3.17
2023-02-15T22:58:06.897Z,-3.21
2023-02-15T23:00:38.614Z,-3.46
2023-02-15T23:03:16.756Z,-3.43
2023-02-15T23:05:43.466Z,-3.51
2023-02-15T23:08:11.322Z,-3.35
2023-02-15T23:10:38.071Z,-3.47
2023-02-15T23:13:23.495Z,-3.85
2023-02-15T23:15:54.542Z,-4.00
2023-02-15T23:18:22.449Z,-3.91
2023-02-15T23:21:00.678Z,-4.11
2023-02-15T23:23:35.938Z,-3.97
2023-02-15T23:26:04.517Z,-3.97
2023-02-15T23:28:34.999Z,-4.03
2023-02-15T23:31:02.642Z,-4.13
2023-02-15T23:33:31.649Z,-4.15
2023-02-15T23:35:58.416Z,-4.14
2023-02-15T23:38:27.175Z,-4.10
2023-02-15T23:41:19.088Z,-3.96
2023-02-15T23:43:52.327Z,-3.92
2023-02-15T23:46:27.957Z,-3.91
2023-02-15T23:48:54.934Z,-3.94
2023-02-15T23:51:23.015Z,-3.93
2023-02-15T23:53:49.793Z,-3.76
2023-02-15T23:56:16.449Z,-3.86
2023-02-15T23:58:44.270Z,-4.01
